Time;durP1;ratioP1;P1;durP2;ratioP2;P2;SDS_P1;SDS_P2;PMS_P1;PMS_P2;Temp;Humidity;BMP_temperature;BMP_pressure;BME280_temperature;BME280_humidity;BME280_pressure;Samples;Min_cycle;Max_cycle;Signal;HPM_P1;HPM_P2
2021/03/15 00:00:59;;;;;;;0.60;0.50;;;4.20;99.90;;;5.09;100.00;-20820.84;5050956;28;20186;-68
2021/03/15 00:03:27;;;;;;;0.60;0.50;;;4.20;99.90;;;5.29;100.00;-20826.25;5051831;28;20206;-68
2021/03/15 00:05:58;;;;;;;0.70;0.60;;;4.30;99.90;;;5.32;100.00;-20826.97;5053578;28;20246;-68
2021/03/15 00:08:26;;;;;;;0.70;0.60;;;4.40;99.90;;;5.32;100.00;-20826.97;5051876;28;20193;-68
2021/03/15 00:10:53;;;;;;;0.70;0.50;;;4.40;99.90;;;5.42;100.00;-20829.59;5047758;28;20592;-69
2021/03/15 00:13:20;;;;;;;0.60;0.60;;;4.50;99.90;;;5.35;100.00;-20827.66;5051457;28;20236;-68
2021/03/15 00:15:49;;;;;;;0.80;0.80;;;4.50;99.90;;;5.39;100.00;-20828.91;5047337;28;20676;-68
2021/03/15 00:18:16;;;;;;;0.70;0.60;;;4.50;99.90;;;5.37;100.00;-20828.22;5052045;28;20259;-68
2021/03/15 00:20:45;;;;;;;0.60;0.60;;;4.50;99.90;;;5.40;100.00;-20829.19;5053028;28;20694;-68
2021/03/15 00:23:14;;;;;;;0.65;0.55;;;4.60;99.90;;;5.56;100.00;-20833.50;5051400;28;20280;-68
2021/03/15 00:25:41;;;;;;;0.70;0.60;;;4.60;99.90;;;5.50;100.00;-20831.84;5050759;28;20669;-68
2021/03/15 00:28:08;;;;;;;0.90;0.75;;;4.60;99.90;;;5.57;100.00;-20833.78;5052531;28;20261;-68
2021/03/15 00:30:36;;;;;;;0.70;0.60;;;4.70;99.90;;;5.60;100.00;-20834.63;5033133;28;20183;-68
2021/03/15 00:33:03;;;;;;;0.70;0.60;;;4.70;99.90;;;5.69;100.00;-20837.13;5043468;28;20240;-68
2021/03/15 00:35:31;;;;;;;0.70;0.60;;;4.70;99.90;;;5.61;100.00;-20834.91;5050432;28;20235;-68
2021/03/15 00:37:59;;;;;;;0.70;0.50;;;4.70;99.90;;;5.80;100.00;-20840.03;5039854;28;20206;-68
2021/03/15 00:40:27;;;;;;;0.70;0.60;;;4.80;99.90;;;5.73;100.00;-20838.22;5052250;28;20197;-69
2021/03/15 00:42:55;;;;;;;0.70;0.60;;;4.80;99.90;;;5.84;100.00;-20841.00;5053387;28;20213;-68
2021/03/15 00:45:25;;;;;;;0.70;0.60;;;4.90;99.90;;;5.83;100.00;-20840.88;5052905;28;20263;-68
2021/03/15 00:47:53;;;;;;;0.68;0.60;;;4.90;99.90;;;5.98;100.00;-20844.91;5050471;28;20236;-69
2021/03/15 00:50:28;;;;;;;0.70;0.60;;;5.00;99.90;;;5.96;100.00;-20844.34;5043750;28;20202;-68
2021/03/15 00:52:56;;;;;;;0.70;0.60;;;5.00;99.90;;;5.88;100.00;-20842.13;5031778;28;20186;-68
2021/03/15 00:55:24;;;;;;;0.70;0.60;;;5.00;99.90;;;5.94;100.00;-20843.81;5049610;28;20622;-68
2021/03/15 00:57:52;;;;;;;0.70;0.60;;;5.10;99.90;;;6.00;100.00;-20845.63;5052590;28;20464;-68
2021/03/15 01:00:31;;;;;;;0.70;0.60;;;5.10;99.90;;;6.00;100.00;-20845.47;5038717;28;20197;-68
2021/03/15 01:03:10;;;;;;;0.60;0.60;;;5.20;99.90;;;5.97;100.00;-20844.63;5044966;28;20476;-68
2021/03/15 01:05:43;;;;;;;0.70;0.70;;;5.10;99.90;;;6.02;100.00;-20846.03;5051365;28;20668;-68
2021/03/15 01:08:27;;;;;;;0.70;0.60;;;5.10;99.90;;;5.98;100.00;-20845.06;5053529;28;20197;-68
2021/03/15 01:10:55;;;;;;;0.70;0.60;;;5.20;99.90;;;5.95;100.00;-20844.22;5056577;28;20962;-68
2021/03/15 01:13:25;;;;;;;0.70;0.60;;;5.20;99.90;;;6.07;100.00;-20847.41;5055098;28;20186;-69
2021/03/15 01:15:53;;;;;;;0.70;0.60;;;5.20;99.90;;;6.14;100.00;-20849.38;5053124;28;20198;-68
2021/03/15 01:18:21;;;;;;;0.70;0.60;;;5.20;99.90;;;6.19;100.00;-20850.75;5056008;28;20215;-68
2021/03/15 01:20:49;;;;;;;0.67;0.50;;;5.20;99.90;;;6.14;100.00;-20849.38;5056119;28;20256;-69
2021/03/15 01:23:16;;;;;;;0.70;0.60;;;5.20;99.90;;;6.12;100.00;-20848.66;5055623;28;20449;-69
2021/03/15 01:25:44;;;;;;;0.60;0.60;;;5.20;99.90;;;6.03;100.00;-20846.31;5056007;28;20455;-68
2021/03/15 01:28:14;;;;;;;0.70;0.60;;;5.20;99.90;;;6.12;100.00;-20848.81;5056272;28;20513;-68
2021/03/15 01:30:44;;;;;;;0.70;0.60;;;5.20;99.90;;;6.13;100.00;-20849.09;5039250;28;20440;-68
2021/03/15 01:33:13;;;;;;;0.60;0.60;;;5.30;99.90;;;6.13;100.00;-20849.09;5034822;28;20587;-68
2021/03/15 01:35:40;;;;;;;0.70;0.60;;;5.30;99.90;;;6.15;100.00;-20849.50;5041934;28;20412;-68
2021/03/15 01:38:08;;;;;;;0.65;0.60;;;5.20;99.90;;;6.04;100.00;-20846.59;5044947;28;20802;-68
2021/03/15 01:40:37;;;;;;;0.60;0.60;;;5.30;99.90;;;6.26;100.00;-20852.72;5045804;28;20650;-68
2021/03/15 01:43:05;;;;;;;0.70;0.60;;;5.30;99.90;;;6.19;100.00;-20850.75;5052111;28;20479;-68
2021/03/15 01:45:33;;;;;;;0.70;0.60;;;5.30;99.90;;;6.03;100.00;-20846.31;5051633;28;20188;-68
2021/03/15 01:48:01;;;;;;;0.70;0.60;;;5.30;99.90;;;6.00;100.00;-20845.63;5075867;28;20939;-68
2021/03/15 01:50:28;;;;;;;0.70;0.60;;;5.20;99.90;;;6.08;100.00;-20847.69;5075814;28;20517;-68
2021/03/15 01:52:56;;;;;;;0.70;0.50;;;5.20;99.90;;;6.03;100.00;-20846.44;5058790;28;20444;-68
2021/03/15 01:55:24;;;;;;;0.70;0.60;;;5.20;99.90;;;6.01;100.00;-20845.75;5052282;28;20501;-68
2021/03/15 01:57:51;;;;;;;0.70;0.50;;;5.20;99.90;;;6.02;100.00;-20846.16;5055879;28;20472;-68
2021/03/15 02:00:20;;;;;;;0.90;0.90;;;5.20;99.90;;;6.12;100.00;-20848.66;5052265;28;20209;-68
2021/03/15 02:02:56;;;;;;;0.70;0.63;;;5.20;99.90;;;6.31;100.00;-20853.81;5055511;28;20631;-68
2021/03/15 02:05:32;;;;;;;0.60;0.50;;;5.20;99.90;;;6.13;100.00;-20849.09;5055241;28;20245;-68
2021/03/15 02:07:59;;;;;;;0.63;0.60;;;5.20;99.90;;;6.09;100.00;-20847.97;5053431;28;20201;-68
2021/03/15 02:10:26;;;;;;;0.60;0.60;;;5.20;99.90;;;6.16;100.00;-20849.94;5053628;28;20501;-68
2021/03/15 02:13:39;;;;;;;0.70;0.60;;;5.20;99.90;;;6.27;100.00;-20852.97;5055252;28;20485;-68
2021/03/15 02:16:14;;;;;;;0.70;0.70;;;5.20;99.90;;;6.08;100.00;-20847.69;5053134;28;20443;-69
2021/03/15 02:19:05;;;;;;;0.70;0.60;;;5.20;99.90;;;6.20;100.00;-20851.03;5034768;28;20697;-68
2021/03/15 02:22:13;;;;;;;0.70;0.60;;;5.20;99.90;;;6.10;100.00;-20848.25;5035543;28;20666;-68
2021/03/15 02:25:02;;;;;;;0.60;0.60;;;5.20;99.90;;;6.34;100.00;-20854.78;5045727;28;20197;-68
2021/03/15 02:28:03;;;;;;;0.60;0.60;;;5.20;99.90;;;6.12;100.00;-20848.81;5055191;28;20470;-68
2021/03/15 02:31:13;;;;;;;0.60;0.50;;;5.20;99.90;;;6.16;100.00;-20849.94;5053160;28;20185;-69
2021/03/15 02:34:03;;;;;;;0.60;0.50;;;5.20;99.90;;;6.00;100.00;-20845.63;5053906;28;20221;-67
2021/03/15 02:36:38;;;;;;;0.60;0.50;;;5.10;99.90;;;6.04;100.00;-20846.59;5040469;28;20445;-67
2021/03/15 02:39:11;;;;;;;0.60;0.60;;;5.10;99.90;;;6.14;100.00;-20849.38;5041790;28;20196;-69
2021/03/15 02:41:40;;;;;;;0.60;0.60;;;5.10;99.90;;;6.25;100.00;-20852.41;5054884;28;20424;-69
2021/03/15 02:44:10;;;;;;;0.60;0.60;;;5.10;99.90;;;6.26;100.00;-20852.56;5054816;28;20272;-66
2021/03/15 02:46:40;;;;;;;0.60;0.60;;;5.10;99.90;;;6.22;100.00;-20851.59;5053982;28;20440;-68
2021/03/15 02:49:12;;;;;;;0.60;0.60;;;5.10;99.90;;;5.98;100.00;-20845.06;5053790;28;20443;-70
2021/03/15 02:51:42;;;;;;;0.60;0.60;;;5.10;99.90;;;5.97;100.00;-20844.63;5051740;28;20194;-68
2021/03/15 02:54:13;;;;;;;0.60;0.60;;;5.10;99.90;;;6.03;100.00;-20846.31;5054091;28;20447;-68
2021/03/15 02:56:44;;;;;;;0.60;0.60;;;5.10;99.90;;;5.98;100.00;-20845.06;5054460;28;20243;-69
2021/03/15 02:59:15;;;;;;;0.70;0.70;;;5.10;99.90;;;5.94;100.00;-20843.81;5054389;28;20409;-68
2021/03/15 03:01:44;;;;;;;0.60;0.50;;;5.10;99.90;;;5.93;100.00;-20843.53;5052873;28;20431;-67
2021/03/15 03:04:13;;;;;;;0.60;0.50;;;5.10;99.90;;;5.94;100.00;-20843.81;5053616;28;20490;-67
2021/03/15 03:06:42;;;;;;;0.60;0.50;;;5.10;99.90;;;5.92;100.00;-20843.25;5054498;28;20206;-68
2021/03/15 03:09:13;;;;;;;0.70;0.60;;;5.10;99.90;;;5.98;100.00;-20845.06;5052090;28;20451;-68
2021/03/15 03:11:41;;;;;;;0.60;0.50;;;5.10;99.90;;;5.99;100.00;-20845.19;5054178;28;20533;-69
2021/03/15 03:14:12;;;;;;;0.60;0.60;;;5.00;99.90;;;5.74;100.00;-20838.50;5054219;28;20447;-70
2021/03/15 03:16:41;;;;;;;0.60;0.60;;;5.00;99.90;;;5.78;100.00;-20839.63;5065348;28;20444;-69
2021/03/15 03:19:15;;;;;;;0.60;0.60;;;5.00;99.90;;;5.76;100.00;-20839.06;5033859;28;20218;-69
2021/03/15 03:21:46;;;;;;;0.68;0.60;;;4.90;99.90;;;5.92;100.00;-20843.25;5034097;28;20185;-69
2021/03/15 03:24:14;;;;;;;0.60;0.60;;;4.90;99.90;;;5.93;100.00;-20843.66;5051278;28;20243;-69
2021/03/15 03:26:44;;;;;;;0.70;0.50;;;4.90;99.90;;;5.79;100.00;-20839.91;5054049;28;20664;-69
2021/03/15 03:29:13;;;;;;;0.60;0.50;;;4.90;99.90;;;5.75;100.00;-20838.78;5052688;28;20186;-69
2021/03/15 03:31:44;;;;;;;0.60;0.50;;;4.90;99.90;;;5.66;100.00;-20836.28;5043931;28;20252;-69
2021/03/15 03:34:13;;;;;;;0.70;0.60;;;4.90;99.90;;;5.92;100.00;-20843.25;5033692;28;20214;-69
2021/03/15 03:36:41;;;;;;;0.60;0.50;;;4.90;99.90;;;5.87;100.00;-20841.84;5035774;28;20259;-69
2021/03/15 03:39:11;;;;;;;0.60;0.50;;;4.90;99.90;;;5.85;100.00;-20841.28;5032527;28;21007;-69
2021/03/15 03:41:40;;;;;;;0.60;0.50;;;4.90;99.90;;;5.79;100.00;-20839.91;5049705;28;20204;-69
2021/03/15 03:44:07;;;;;;;0.60;0.50;;;4.90;99.90;;;5.74;100.00;-20838.38;5037092;28;20449;-70
2021/03/15 03:46:34;;;;;;;0.60;0.50;;;4.90;99.90;;;5.75;100.00;-20838.78;5037796;28;20186;-69
2021/03/15 03:49:03;;;;;;;0.60;0.50;;;4.90;99.90;;;5.87;100.00;-20841.84;5033313;28;20508;-69
2021/03/15 03:51:39;;;;;;;0.60;0.50;;;4.90;99.90;;;5.91;100.00;-20842.97;5033618;28;20933;-69
2021/03/15 03:54:15;;;;;;;0.60;0.60;;;4.90;99.90;;;5.95;100.00;-20844.09;5038432;28;20219;-69
2021/03/15 03:56:54;;;;;;;0.60;0.50;;;4.90;99.90;;;5.85;100.00;-20841.28;5053396;28;20407;-68
2021/03/15 03:59:25;;;;;;;0.60;0.60;;;4.90;99.90;;;6.05;100.00;-20847.00;5033948;28;20271;-69
2021/03/15 04:01:58;;;;;;;0.60;0.50;;;4.90;99.90;;;6.04;100.00;-20846.59;5033651;28;20695;-69
2021/03/15 04:04:31;;;;;;;0.70;0.60;;;4.90;99.90;;;5.98;100.00;-20844.91;5033368;28;20227;-69
2021/03/15 04:06:59;;;;;;;0.60;0.50;;;4.90;99.90;;;5.97;100.00;-20844.63;5033451;28;20263;-70
2021/03/15 04:09:31;;;;;;;0.60;0.50;;;4.90;99.90;;;5.97;100.00;-20844.63;5052531;28;20526;-70
2021/03/15 04:12:04;;;;;;;0.60;0.60;;;4.90;99.90;;;5.97;100.00;-20844.78;5046869;28;20477;-69
2021/03/15 04:14:38;;;;;;;0.60;0.50;;;4.90;99.90;;;6.02;100.00;-20846.03;5033477;28;20172;-69
2021/03/15 04:17:09;;;;;;;0.60;0.50;;;4.90;99.90;;;6.03;100.00;-20846.31;5047975;28;20799;-69
2021/03/15 04:19:42;;;;;;;0.60;0.50;;;4.90;99.90;;;5.90;100.00;-20842.69;5052865;28;20232;-69
2021/03/15 04:22:11;;;;;;;0.70;0.60;;;4.90;99.90;;;6.00;100.00;-20845.63;5052723;28;20507;-69
2021/03/15 04:24:42;;;;;;;0.60;0.60;;;4.90;99.90;;;5.96;100.00;-20844.34;5051191;28;20548;-69
2021/03/15 04:27:10;;;;;;;0.60;0.60;;;4.90;99.90;;;6.10;100.00;-20848.13;5053269;28;20190;-70
2021/03/15 04:29:39;;;;;;;0.60;0.60;;;4.90;99.90;;;6.11;100.00;-20848.38;5050168;28;20244;-69
2021/03/15 04:32:08;;;;;;;0.63;0.60;;;4.90;99.90;;;6.06;100.00;-20847.13;5051604;28;20214;-67
2021/03/15 04:34:37;;;;;;;0.60;0.50;;;4.90;99.90;;;6.10;100.00;-20848.25;5052528;28;20209;-68
2021/03/15 04:37:07;;;;;;;0.60;0.50;;;4.90;99.90;;;6.16;100.00;-20849.94;5046804;28;20196;-67
2021/03/15 04:39:36;;;;;;;0.63;0.60;;;5.00;99.90;;;6.18;100.00;-20850.34;5051365;28;20440;-68
2021/03/15 04:42:06;;;;;;;0.87;0.83;;;5.00;99.90;;;6.12;100.00;-20848.66;5055782;28;20412;-67
2021/03/15 04:44:38;;;;;;;0.70;0.60;;;5.00;99.90;;;6.17;100.00;-20850.06;5057139;28;20411;-68
2021/03/15 04:47:06;;;;;;;0.60;0.50;;;5.00;99.90;;;6.20;100.00;-20851.03;5055407;28;20526;-68
2021/03/15 04:49:37;;;;;;;0.60;0.60;;;5.10;99.90;;;6.20;100.00;-20851.03;5060001;28;20259;-68
2021/03/15 04:52:05;;;;;;;0.60;0.50;;;5.10;99.90;;;6.41;100.00;-20856.59;5065177;28;20238;-70
2021/03/15 04:54:32;;;;;;;0.70;0.68;;;5.20;99.90;;;6.53;100.00;-20860.06;5055683;28;20204;-67
2021/03/15 04:57:01;;;;;;;0.60;0.60;;;5.30;99.90;;;6.50;100.00;-20859.25;5056727;28;20556;-67
2021/03/15 04:59:31;;;;;;;0.60;0.57;;;5.30;99.90;;;6.41;100.00;-20856.59;5056990;28;20205;-68
2021/03/15 05:02:01;;;;;;;0.60;0.50;;;5.30;99.90;;;6.53;100.00;-20860.06;5056871;28;20438;-69
2021/03/15 05:04:28;;;;;;;0.60;0.60;;;5.40;99.90;;;6.58;100.00;-20861.31;5076424;28;20943;-67
2021/03/15 05:06:56;;;;;;;0.60;0.60;;;5.40;99.90;;;6.71;100.00;-20864.78;5074126;28;20443;-67
2021/03/15 05:09:26;;;;;;;0.70;0.60;;;5.40;99.90;;;6.65;100.00;-20863.25;5054807;28;20446;-67
2021/03/15 05:11:55;;;;;;;0.60;0.60;;;5.40;99.90;;;6.67;100.00;-20863.81;5058876;28;20784;-68
2021/03/15 05:14:23;;;;;;;0.60;0.60;;;5.40;99.90;;;6.76;100.00;-20866.31;5059681;28;20441;-67
2021/03/15 05:16:51;;;;;;;0.60;0.50;;;5.40;99.90;;;6.63;100.00;-20862.72;5068137;28;20443;-68
2021/03/15 05:19:20;;;;;;;0.60;0.50;;;5.40;99.90;;;6.67;100.00;-20863.69;5075865;28;20470;-67
2021/03/15 05:21:48;;;;;;;0.63;0.60;;;5.50;99.90;;;6.69;100.00;-20864.38;5059526;28;20448;-67
2021/03/15 05:24:16;;;;;;;0.60;0.50;;;5.50;99.90;;;6.56;100.00;-20860.78;5053831;28;20422;-68
2021/03/15 05:26:43;;;;;;;0.60;0.50;;;5.50;99.90;;;6.57;100.00;-20861.03;5055362;28;20450;-67
2021/03/15 05:29:15;;;;;;;0.60;0.60;;;5.50;99.90;;;6.66;100.00;-20863.53;5051342;28;20446;-67
2021/03/15 05:31:46;;;;;;;0.60;0.50;;;5.40;99.90;;;6.50;100.00;-20859.09;5055394;28;20505;-67
2021/03/15 05:34:15;;;;;;;0.60;0.60;;;5.30;99.90;;;6.44;100.00;-20857.44;5053571;28;20463;-67
2021/03/15 05:36:43;;;;;;;0.60;0.50;;;5.20;99.90;;;6.26;100.00;-20852.72;5053721;28;20424;-68
2021/03/15 05:39:11;;;;;;;0.70;0.60;;;5.10;99.90;;;6.10;100.00;-20848.25;5059405;28;20478;-68
2021/03/15 05:42:04;;;;;;;0.60;0.50;;;5.00;99.90;;;5.96;100.00;-20844.34;5054106;28;20188;-68
2021/03/15 05:44:57;;;;;;;0.60;0.53;;;4.90;99.90;;;5.86;100.00;-20841.56;5054057;28;20774;-69
2021/03/15 05:48:18;;;;;;;1.23;1.13;;;4.80;99.90;;;5.65;100.00;-20835.88;5072887;28;20437;-69
2021/03/15 05:51:15;;;;;;;0.70;0.70;;;4.70;99.90;;;5.61;100.00;-20834.91;5073680;28;20177;-70
2021/03/15 05:54:41;;;;;;;0.60;0.60;;;4.60;99.90;;;5.63;100.00;-20835.44;5072989;28;20181;-69
2021/03/15 05:57:51;;;;;;;0.70;0.50;;;4.60;99.90;;;5.67;100.00;-20836.44;5074674;28;20243;-68
2021/03/15 06:00:34;;;;;;;0.60;0.50;;;4.60;99.90;;;5.57;100.00;-20833.78;5053358;28;20861;-67
2021/03/15 06:03:25;;;;;;;0.60;0.60;;;4.60;99.90;;;5.67;100.00;-20836.44;5055468;28;20209;-69
2021/03/15 06:05:55;;;;;;;0.60;0.60;;;4.60;99.90;;;5.80;100.00;-20840.19;5055348;28;20185;-67
2021/03/15 06:08:27;;;;;;;0.70;0.60;;;4.70;99.90;;;5.76;100.00;-20839.06;5055687;28;20656;-68
2021/03/15 06:11:04;;;;;;;0.60;0.60;;;4.80;99.90;;;5.80;100.00;-20840.03;5054239;28;20253;-67
2021/03/15 06:13:33;;;;;;;0.60;0.55;;;4.80;99.90;;;5.78;100.00;-20839.63;5054699;28;20173;-68
2021/03/15 06:16:01;;;;;;;0.60;0.50;;;4.80;99.90;;;5.88;100.00;-20842.13;5062591;28;20189;-68
2021/03/15 06:18:29;;;;;;;0.60;0.50;;;4.80;99.90;;;5.88;100.00;-20842.13;5069808;28;20479;-68
2021/03/15 06:20:58;;;;;;;0.60;0.50;;;4.80;99.90;;;5.86;100.00;-20841.56;5054765;28;20190;-68
2021/03/15 06:23:26;;;;;;;0.70;0.70;;;4.90;99.90;;;5.91;100.00;-20843.09;5052267;28;20184;-68
2021/03/15 06:25:55;;;;;;;0.60;0.60;;;4.90;99.90;;;5.84;100.00;-20841.16;5055079;28;20221;-69
2021/03/15 06:28:24;;;;;;;0.60;0.60;;;4.90;99.90;;;5.91;100.00;-20843.09;5054157;28;20439;-67
2021/03/15 06:30:53;;;;;;;0.60;0.50;;;4.90;99.90;;;5.95;100.00;-20844.09;5048224;28;20193;-67
2021/03/15 06:33:22;;;;;;;0.60;0.50;;;4.90;99.90;;;5.94;100.00;-20843.81;5055022;28;20217;-67
2021/03/15 06:35:55;;;;;;;0.60;0.50;;;4.90;99.90;;;5.96;100.00;-20844.34;5042785;28;20451;-68
2021/03/15 06:38:27;;;;;;;0.60;0.50;;;4.90;99.90;;;6.01;100.00;-20845.75;5055070;28;20856;-67
2021/03/15 06:41:05;;;;;;;0.70;0.70;;;4.90;99.90;;;6.20;100.00;-20851.03;5055206;28;20498;-67
2021/03/15 06:43:32;;;;;;;0.60;0.50;;;5.00;99.90;;;6.15;100.00;-20849.50;5055035;28;20182;-68
2021/03/15 06:46:00;;;;;;;0.60;0.60;;;5.00;99.90;;;6.14;100.00;-20849.22;5054840;28;20673;-68
2021/03/15 06:48:28;;;;;;;0.63;0.60;;;5.00;99.90;;;6.16;100.00;-20849.94;5054626;28;20216;-68
2021/03/15 06:50:56;;;;;;;0.60;0.60;;;5.00;99.90;;;6.15;100.00;-20849.66;5054668;28;20417;-67
2021/03/15 06:53:35;;;;;;;0.60;0.60;;;5.00;99.90;;;6.18;100.00;-20850.47;5053284;28;20238;-68
2021/03/15 06:56:02;;;;;;;1.65;1.15;;;5.00;99.90;;;6.12;100.00;-20848.81;5054948;28;20424;-67
2021/03/15 06:58:33;;;;;;;0.70;0.60;;;5.00;99.90;;;6.18;100.00;-20850.47;5054658;28;20582;-68
2021/03/15 07:01:21;;;;;;;0.80;0.60;;;5.00;99.90;;;6.33;100.00;-20854.38;5052817;28;20561;-68
2021/03/15 07:03:51;;;;;;;0.60;0.50;;;5.10;99.90;;;6.33;100.00;-20854.50;5053094;28;20517;-68
2021/03/15 07:06:20;;;;;;;0.60;0.50;;;5.10;99.90;;;6.21;100.00;-20851.19;5053522;28;20181;-67
2021/03/15 07:08:48;;;;;;;0.60;0.60;;;5.10;99.90;;;6.24;100.00;-20852.16;5053088;28;20664;-67
2021/03/15 07:11:24;;;;;;;0.60;0.60;;;5.10;99.90;;;6.34;100.00;-20854.66;5054339;28;20419;-67
2021/03/15 07:13:52;;;;;;;0.60;0.60;;;5.20;99.90;;;6.69;100.00;-20864.38;5069939;28;20420;-68
2021/03/15 07:16:28;;;;;;;0.60;0.50;;;5.40;99.90;;;6.82;100.00;-20867.84;5065001;28;20427;-70
2021/03/15 07:18:57;;;;;;;0.60;0.50;;;5.50;99.90;;;6.55;100.00;-20860.47;5074257;28;20482;-68
2021/03/15 07:21:37;;;;;;;0.60;0.50;;;5.50;99.90;;;6.81;100.00;-20867.44;5073893;28;20466;-67
2021/03/15 07:24:12;;;;;;;0.60;0.60;;;5.60;99.90;;;6.92;100.00;-20870.50;5066631;28;20487;-68
2021/03/15 07:26:46;;;;;;;0.60;0.53;;;5.60;99.90;;;7.17;100.00;-20877.28;5090575;27;20500;-68
2021/03/15 07:29:16;;;;;;;0.60;0.50;;;5.70;99.90;;;7.09;100.00;-20875.22;5068629;28;20488;-68
2021/03/15 07:31:45;;;;;;;0.60;0.50;;;5.70;99.90;;;7.22;100.00;-20878.69;5070588;28;20466;-68
2021/03/15 07:34:17;;;;;;;0.60;0.50;;;5.70;99.90;;;7.02;100.00;-20873.28;5057053;28;20989;-68
2021/03/15 07:36:51;;;;;;;1.47;1.37;;;5.80;99.90;;;7.12;100.00;-20876.06;5050746;28;20446;-68
2021/03/15 07:39:19;;;;;;;0.60;0.60;;;5.90;99.90;;;7.49;100.00;-20886.03;5039562;28;20437;-67
2021/03/15 07:41:49;;;;;;;0.60;0.50;;;6.10;99.90;;;7.50;100.00;-20886.47;5030779;28;20421;-68
2021/03/15 07:44:24;;;;;;;0.70;0.60;;;5.90;99.90;;;7.29;100.00;-20880.50;5031024;28;20417;-67
2021/03/15 07:46:54;;;;;;;0.70;0.60;;;5.90;99.90;;;7.24;100.00;-20879.38;5045040;28;20435;-68
2021/03/15 07:49:28;;;;;;;0.70;0.60;;;5.90;99.90;;;7.19;100.00;-20878.00;5050556;28;20466;-68
2021/03/15 07:52:00;;;;;;;0.67;0.53;;;5.80;99.90;;;7.17;100.00;-20877.44;5049238;28;20441;-68
2021/03/15 07:54:31;;;;;;;0.60;0.50;;;5.90;99.90;;;7.26;100.00;-20879.81;5050499;28;20511;-68
2021/03/15 07:57:20;;;;;;;0.60;0.60;;;5.90;99.90;;;7.35;100.00;-20882.16;5050439;28;20917;-67
2021/03/15 07:59:50;;;;;;;0.60;0.60;;;5.90;99.90;;;7.25;100.00;-20879.66;5047052;28;20436;-68
2021/03/15 08:02:23;;;;;;;0.70;0.70;;;5.90;99.90;;;7.29;100.00;-20880.50;5050242;28;20416;-67
2021/03/15 08:04:52;;;;;;;0.60;0.50;;;6.00;99.90;;;7.31;100.00;-20881.06;5049946;28;20478;-68
2021/03/15 08:07:21;;;;;;;1.70;1.60;;;6.00;99.90;;;7.31;100.00;-20881.06;5050494;28;20824;-68
2021/03/15 08:09:58;;;;;;;0.60;0.60;;;6.00;99.90;;;7.50;100.00;-20886.31;5050348;28;20427;-68
2021/03/15 08:12:30;;;;;;;0.67;0.60;;;6.20;99.90;;;7.33;100.00;-20881.75;5050458;28;20491;-67
2021/03/15 08:15:02;;;;;;;0.70;0.70;;;6.10;99.90;;;7.42;100.00;-20884.09;5050061;28;20416;-68
2021/03/15 08:17:29;;;;;;;0.70;0.57;;;6.10;99.90;;;7.99;100.00;-20899.66;5050059;28;20436;-68
2021/03/15 08:20:01;;;;;;;0.70;0.60;;;6.60;99.90;;;8.65;100.00;-20917.69;5049793;28;20459;-68
2021/03/15 08:22:36;;;;;;;0.70;0.50;;;7.10;99.90;;;9.63;100.00;-20944.28;5050234;28;20507;-68
2021/03/15 08:25:06;;;;;;;0.70;0.60;;;7.40;99.90;;;9.53;100.00;-20941.53;5049482;28;20561;-68
2021/03/15 08:27:39;;;;;;;0.70;0.50;;;7.40;99.90;;;10.02;100.00;-20954.69;5048017;28;20443;-68
2021/03/15 08:30:15;;;;;;;0.70;0.60;;;7.90;99.90;;;10.04;100.00;-20955.22;5049676;28;20420;-69
2021/03/15 08:32:43;;;;;;;0.70;0.60;;;7.80;99.90;;;9.98;100.00;-20953.56;5048319;28;20436;-68
2021/03/15 08:35:14;;;;;;;0.70;0.60;;;7.90;99.90;;;9.85;100.00;-20950.09;5049479;28;20431;-68
2021/03/15 08:37:59;;;;;;;0.70;0.50;;;7.50;99.90;;;9.63;100.00;-20944.16;5038872;28;20409;-68
2021/03/15 08:40:56;;;;;;;0.70;0.60;;;7.70;99.90;;;10.48;100.00;-20967.28;5036378;28;20413;-68
2021/03/15 08:43:38;;;;;;;0.70;0.60;;;8.20;99.90;;;10.36;100.00;-20964.09;5034966;28;20777;-68
2021/03/15 08:46:07;;;;;;;1.53;1.00;;;8.00;99.90;;;9.58;100.00;-20942.78;5036294;28;20483;-67
2021/03/15 08:48:59;;;;;;;0.70;0.57;;;7.60;99.90;;;9.00;100.00;-20927.13;5036149;28;20494;-68
2021/03/15 08:51:46;;;;;;;0.70;0.50;;;7.30;99.90;;;8.96;100.00;-20926.00;5035753;28;20475;-67
2021/03/15 08:54:37;;;;;;;0.70;0.60;;;7.30;99.90;;;8.94;100.00;-20925.44;5066094;28;20461;-67
2021/03/15 08:57:07;;;;;;;0.70;0.60;;;7.30;99.90;;;8.76;100.00;-20920.59;5034304;28;20448;-68
2021/03/15 08:59:35;;;;;;;0.70;0.60;;;7.40;99.90;;;8.94;100.00;-20925.44;5035739;28;20813;-67
2021/03/15 09:02:05;;;;;;;0.70;0.50;;;7.40;99.90;;;8.97;100.00;-20926.28;5034262;28;20858;-67
2021/03/15 09:04:48;;;;;;;0.70;0.57;;;7.40;99.90;;;9.16;100.00;-20931.53;5035556;28;20443;-69
2021/03/15 09:07:34;;;;;;;0.70;0.57;;;7.70;99.90;;;9.20;100.00;-20932.50;5035557;28;20771;-68
2021/03/15 09:10:42;;;;;;;0.70;0.60;;;7.60;99.90;;;9.10;100.00;-20929.88;5034296;28;20435;-68
2021/03/15 09:13:29;;;;;;;0.70;0.60;;;7.60;99.90;;;9.33;100.00;-20935.97;5035348;28;20516;-67
2021/03/15 09:16:11;;;;;;;0.67;0.50;;;7.70;99.90;;;9.37;100.00;-20937.09;5035490;28;20827;-67
2021/03/15 09:18:51;;;;;;;0.70;0.60;;;7.80;99.90;;;9.23;100.00;-20933.34;5035225;28;20859;-69
2021/03/15 09:21:52;;;;;;;0.70;0.70;;;7.50;99.90;;;9.01;100.00;-20927.38;5034649;28;20432;-67
2021/03/15 09:24:47;;;;;;;0.70;0.53;;;7.30;99.90;;;8.85;100.00;-20923.09;5029681;28;20460;-67
2021/03/15 09:27:30;;;;;;;0.67;0.50;;;7.30;99.90;;;8.51;100.00;-20913.81;5022468;28;20439;-67
2021/03/15 09:30:00;;;;;;;0.70;0.60;;;7.40;99.90;;;8.53;100.00;-20914.34;5034628;28;20437;-67
2021/03/15 09:32:32;;;;;;;0.60;0.50;;;7.30;99.90;;;8.79;100.00;-20921.28;5035239;28;20421;-68
2021/03/15 09:35:12;;;;;;;0.70;0.50;;;7.30;99.90;;;8.74;100.00;-20920.03;5034602;28;20481;-67
2021/03/15 09:37:41;;;;;;;0.70;0.60;;;7.30;99.90;;;8.54;100.00;-20914.50;5035400;28;20432;-69
2021/03/15 09:40:12;;;;;;;0.63;0.50;;;7.30;99.90;;;8.48;100.00;-20912.97;5034699;28;20437;-68
2021/03/15 09:42:40;;;;;;;0.67;0.53;;;7.40;99.90;;;8.50;100.00;-20913.53;5035051;28;20421;-67
2021/03/15 09:45:13;;;;;;;0.70;0.50;;;7.40;99.90;;;8.68;100.00;-20918.38;5033650;28;20457;-67
2021/03/15 09:47:41;;;;;;;0.70;0.60;;;7.40;99.90;;;8.81;100.00;-20921.97;5034732;28;20841;-67
2021/03/15 09:50:19;;;;;;;0.70;0.60;;;7.40;99.90;;;9.23;100.00;-20933.22;5032668;28;20436;-67
2021/03/15 09:52:52;;;;;;;0.70;0.50;;;7.90;99.90;;;9.80;100.00;-20948.72;5031851;28;21037;-69
2021/03/15 09:55:22;;;;;;;1.00;0.90;;;8.00;99.90;;;10.19;100.00;-20959.25;5050195;28;20425;-69
2021/03/15 09:58:03;;;;;;;0.70;0.60;;;8.30;99.90;;;9.88;100.00;-20950.94;5033297;28;20445;-68
2021/03/15 10:00:40;;;;;;;0.60;0.50;;;8.00;99.90;;;9.38;100.00;-20937.38;5033329;28;20513;-68
2021/03/15 10:03:23;;;;;;;0.70;0.50;;;7.60;99.90;;;8.52;100.00;-20914.09;5033040;28;20462;-68
2021/03/15 10:06:09;;;;;;;0.70;0.50;;;7.30;99.90;;;8.08;100.00;-20902.16;5034030;28;20460;-67
2021/03/15 10:09:05;;;;;;;0.70;0.50;;;6.90;99.90;;;7.61;100.00;-20889.25;5034430;28;20571;-68
2021/03/15 10:11:56;;;;;;;0.70;0.60;;;6.80;99.90;;;7.72;100.00;-20892.44;5024089;28;20433;-67
2021/03/15 10:15:02;;;;;;;0.70;0.50;;;6.80;99.90;;;7.91;100.00;-20897.44;5054057;28;20440;-68
2021/03/15 10:17:45;;;;;;;0.70;0.50;;;7.00;99.90;;;9.13;100.00;-20930.72;5023773;28;20451;-68
2021/03/15 10:20:52;;;;;;;0.70;0.50;;;7.80;99.90;;;11.01;100.00;-20981.50;5030758;28;20825;-70
2021/03/15 10:23:23;;;;;;;0.70;0.60;;;8.80;99.90;;;11.66;100.00;-20999.06;5029480;28;20451;-68
2021/03/15 10:25:56;;;;;;;0.70;0.60;;;9.10;99.90;;;12.21;100.00;-21014.00;5033912;28;21011;-67
2021/03/15 10:28:28;;;;;;;0.80;0.70;;;9.50;99.90;;;11.92;100.00;-21006.25;5049488;28;20435;-67
2021/03/15 10:31:18;;;;;;;0.70;0.70;;;9.40;99.90;;;11.50;100.00;-20994.91;5032344;28;20437;-67
2021/03/15 10:33:49;;;;;;;0.70;0.60;;;9.50;99.90;;;11.98;100.00;-21007.78;5032527;28;20461;-67
2021/03/15 10:36:21;;;;;;;0.70;0.67;;;9.70;99.90;;;12.29;100.00;-21016.19;5032254;28;20826;-66
2021/03/15 10:39:05;;;;;;;0.70;0.60;;;9.60;99.90;;;11.84;100.00;-21004.19;5032512;28;20432;-69
2021/03/15 10:41:33;;;;;;;0.70;0.60;;;9.60;99.90;;;13.29;100.00;-21043.38;5032225;28;20477;-68
2021/03/15 10:44:21;;;;;;;0.70;0.60;;;10.30;99.90;;;14.14;100.00;-21066.09;5032661;28;20452;-67
2021/03/15 10:46:54;;;;;;;0.70;0.60;;;11.00;99.90;;;14.30;100.00;-21070.53;5032653;28;21057;-68